Time;durP1;ratioP1;P1;durP2;ratioP2;P2;SDS_P1;SDS_P2;PMS_P1;PMS_P2;Temp;Humidity;BMP_temperature;BMP_pressure;BME280_temperature;BME280_humidity;BME280_pressure;Samples;Min_cycle;Max_cycle;Signal;HPM_P1;HPM_P2
2022/05/06 00:02:21;;;;;;;37.97;17.30;;;;;;;9.33;99.84;102526.63;5060057;28;21854;-71
2022/05/06 00:04:47;;;;;;;38.63;17.35;;;;;;;9.32;99.23;102535.47;5063616;28;20047;-71
2022/05/06 00:07:12;;;;;;;37.13;16.52;;;;;;;9.32;100.00;102540.75;5063945;28;20029;-71
2022/05/06 00:09:42;;;;;;;38.38;17.25;;;;;;;9.31;99.61;102529.28;5062381;28;20093;-71
2022/05/06 00:12:08;;;;;;;38.38;16.70;;;;;;;9.30;99.71;102534.59;5044054;28;20035;-71
2022/05/06 00:14:36;;;;;;;36.25;15.85;;;;;;;9.28;99.63;102539.03;5061907;28;20032;-71
2022/05/06 00:17:05;;;;;;;37.47;16.33;;;;;;;9.25;99.68;102532.00;5062680;28;20075;-71
2022/05/06 00:19:31;;;;;;;40.08;16.60;;;;;;;9.23;99.22;102532.03;5045013;28;20148;-72
2022/05/06 00:21:57;;;;;;;38.22;16.15;;;;;;;9.25;100.00;102529.38;5058134;28;20043;-72
2022/05/06 00:24:22;;;;;;;37.63;15.65;;;;;;;9.23;100.00;102524.13;5057188;28;20036;-72
2022/05/06 00:26:48;;;;;;;38.13;15.80;;;;;;;9.22;100.00;102524.13;5044908;28;20040;-72
2022/05/06 00:29:13;;;;;;;36.13;15.43;;;;;;;9.18;99.91;102525.06;5062288;28;20056;-72
2022/05/06 00:31:39;;;;;;;34.28;16.50;;;;;;;9.15;100.00;102517.19;5039059;28;20087;-72
2022/05/06 00:34:05;;;;;;;34.55;15.32;;;;;;;9.10;100.00;102520.75;5043070;28;20181;-72
2022/05/06 00:36:30;;;;;;;32.55;14.65;;;;;;;9.05;99.55;102517.28;5061690;28;20399;-72
2022/05/06 00:38:56;;;;;;;34.25;15.27;;;;;;;9.02;99.75;102517.31;5063316;28;20036;-72
2022/05/06 00:41:21;;;;;;;38.35;16.00;;;;;;;8.99;100.00;102517.34;5061093;28;20032;-72
2022/05/06 00:43:47;;;;;;;34.20;13.90;;;;;;;8.97;100.00;102505.94;5063227;28;20561;-72
2022/05/06 00:46:16;;;;;;;29.92;13.43;;;;;;;8.95;100.00;102507.72;5031298;28;20054;-72
2022/05/06 00:48:46;;;;;;;34.53;14.90;;;;;;;8.94;100.00;102508.63;5060357;28;20134;-72
2022/05/06 00:51:12;;;;;;;36.45;14.75;;;;;;;8.94;100.00;102511.25;5062338;28;20633;-72
2022/05/06 00:53:39;;;;;;;35.47;14.65;;;;;;;8.95;100.00;102505.09;5038424;28;20045;-72
2022/05/06 00:56:08;;;;;;;33.45;13.90;;;;;;;8.96;100.00;102509.47;5062542;28;20043;-72
2022/05/06 00:58:34;;;;;;;33.08;14.00;;;;;;;8.96;100.00;102505.06;5058057;28;20054;-72
2022/05/06 01:01:01;;;;;;;32.10;13.95;;;;;;;8.99;100.00;102511.19;5042083;28;20637;-72
2022/05/06 01:03:27;;;;;;;37.75;14.90;;;;;;;9.03;100.00;102505.84;5061636;28;20032;-73
2022/05/06 01:05:56;;;;;;;32.75;13.98;;;;;;;9.08;100.00;102508.44;5024131;28;20093;-72
2022/05/06 01:08:22;;;;;;;40.35;15.95;;;;;;;9.14;100.00;102510.16;5042113;28;20598;-72
2022/05/06 01:10:47;;;;;;;38.30;15.40;;;;;;;9.21;100.00;102511.81;5065795;28;20028;-72
2022/05/06 01:13:13;;;;;;;37.10;16.38;;;;;;;9.26;100.00;102512.59;5040519;28;20580;-72
2022/05/06 01:15:39;;;;;;;38.92;16.45;;;;;;;9.35;100.00;102514.25;5065281;28;20055;-72
2022/05/06 01:18:04;;;;;;;38.85;15.45;;;;;;;9.42;100.00;102515.91;5061697;28;20046;-72
2022/05/06 01:20:33;;;;;;;35.25;15.18;;;;;;;9.45;100.00;102513.25;5062771;28;20040;-72
2022/05/06 01:23:00;;;;;;;40.65;15.25;;;;;;;9.52;100.00;102516.66;5066813;28;21538;-72
2022/05/06 01:25:26;;;;;;;38.33;16.38;;;;;;;9.57;100.00;102521.88;5065289;28;20040;-72
2022/05/06 01:28:02;;;;;;;38.53;15.63;;;;;;;9.60;100.00;102513.91;5048016;28;20403;-72
2022/05/06 01:30:37;;;;;;;40.40;16.02;;;;;;;9.64;100.00;102516.50;5025459;28;20785;-72
2022/05/06 01:33:09;;;;;;;41.85;16.20;;;;;;;9.70;100.00;102514.66;5047646;28;20036;-72
2022/05/06 01:35:43;;;;;;;43.00;16.15;;;;;;;9.75;100.00;102520.75;5066003;28;20440;-72
2022/05/06 01:38:09;;;;;;;44.90;17.13;;;;;;;9.78;100.00;102524.22;5066709;28;20153;-72
2022/05/06 01:40:42;;;;;;;40.38;16.08;;;;;;;9.82;100.00;102529.47;5060226;28;20020;-72
2022/05/06 01:43:11;;;;;;;44.13;16.67;;;;;;;9.83;100.00;102523.28;5042144;28;20036;-72
2022/05/06 01:45:37;;;;;;;40.40;16.27;;;;;;;9.85;100.00;102524.13;5066204;28;20134;-72
2022/05/06 01:48:03;;;;;;;41.60;15.60;;;;;;;9.86;100.00;102532.03;5064427;28;21229;-72
2022/05/06 01:50:32;;;;;;;37.88;15.45;;;;;;;9.88;100.00;102524.97;5039046;28;20551;-71
2022/05/06 01:52:59;;;;;;;40.40;15.50;;;;;;;9.91;100.00;102530.19;5065208;28;20047;-71
2022/05/06 01:55:24;;;;;;;41.15;16.08;;;;;;;9.94;100.00;102528.38;5048112;28;20032;-71
2022/05/06 01:57:50;;;;;;;36.85;16.05;;;;;;;9.94;100.00;102517.81;5063764;28;20024;-72
2022/05/06 02:00:17;;;;;;;38.42;15.73;;;;;;;9.97;100.00;102521.28;5061928;28;20036;-72
2022/05/06 02:02:42;;;;;;;39.60;15.93;;;;;;;9.99;100.00;102526.56;5065166;28;20099;-72
2022/05/06 02:05:17;;;;;;;36.15;15.82;;;;;;;9.99;100.00;102523.91;5064976;28;20036;-71
2022/05/06 02:07:48;;;;;;;36.53;15.30;;;;;;;10.00;100.00;102523.88;5045631;28;20025;-74
2022/05/06 02:10:17;;;;;;;35.00;14.90;;;;;;;10.00;100.00;102523.00;5044640;28;20126;-72
2022/05/06 02:12:46;;;;;;;35.40;14.27;;;;;;;9.98;100.00;102525.66;5046398;28;20039;-73
2022/05/06 02:15:13;;;;;;;36.90;15.25;;;;;;;9.98;100.00;102527.47;5045693;28;20346;-72
2022/05/06 02:17:39;;;;;;;37.85;15.05;;;;;;;9.98;100.00;102522.16;5065907;28;20059;-72
2022/05/06 02:20:06;;;;;;;36.63;15.95;;;;;;;9.97;100.00;102525.72;5063030;28;20089;-72
2022/05/06 02:22:35;;;;;;;34.83;14.70;;;;;;;9.95;100.00;102525.72;5025684;28;20050;-72
2022/05/06 02:25:00;;;;;;;38.83;15.82;;;;;;;9.95;100.00;102514.25;5046609;28;20662;-72
2022/05/06 02:27:26;;;;;;;41.97;16.75;;;;;;;9.94;100.00;102516.06;5050177;28;20059;-72
2022/05/06 02:35:19;;;;;;;38.85;14.60;;;;;;;9.89;100.00;102521.41;5050829;28;20029;-73
2022/05/06 02:37:45;;;;;;;32.58;14.50;;;;;;;9.85;100.00;102519.72;5064301;28;20040;-72
2022/05/06 02:40:11;;;;;;;37.10;14.10;;;;;;;9.82;100.00;102514.47;5013537;28;20494;-72
2022/05/06 02:42:37;;;;;;;35.17;14.68;;;;;;;9.80;100.00;102516.25;5046156;28;20035;-72
2022/05/06 02:45:04;;;;;;;37.92;15.32;;;;;;;9.79;100.00;102517.16;5064194;28;20503;-72
2022/05/06 02:47:30;;;;;;;34.40;13.98;;;;;;;9.80;100.00;102516.25;5047158;28;20085;-72
2022/05/06 02:49:55;;;;;;;36.60;14.82;;;;;;;9.80;100.00;102524.19;5065486;28;20161;-72
2022/05/06 02:52:24;;;;;;;37.15;14.70;;;;;;;9.79;100.00;102519.81;5034860;28;20998;-72
2022/05/06 02:54:50;;;;;;;40.92;15.57;;;;;;;9.76;100.00;102518.06;5046045;28;20055;-72
2022/05/06 02:57:15;;;;;;;34.35;14.13;;;;;;;9.76;100.00;102526.00;5062493;28;20056;-73
2022/05/06 02:59:41;;;;;;;33.50;14.40;;;;;;;9.73;100.00;102520.78;5044776;28;20744;-73
2022/05/06 03:02:07;;;;;;;40.13;14.77;;;;;;;9.72;100.00;102512.84;5059495;28;20044;-72
2022/05/06 03:04:33;;;;;;;35.47;14.10;;;;;;;9.72;100.00;102523.44;5047562;28;20040;-73
2022/05/06 03:06:59;;;;;;;39.83;14.48;;;;;;;9.71;100.00;102527.88;5037799;28;20024;-74
2022/05/06 03:09:25;;;;;;;38.05;14.10;;;;;;;9.70;100.00;102518.16;5033892;28;20037;-72
2022/05/06 03:11:50;;;;;;;39.50;13.70;;;;;;;9.68;100.00;102521.72;5040681;28;20357;-73
2022/05/06 03:14:16;;;;;;;34.97;13.65;;;;;;;9.64;100.00;102511.19;5065159;28;20120;-72
2022/05/06 03:16:41;;;;;;;35.53;13.60;;;;;;;9.62;100.00;102518.28;5065784;28;20028;-73
2022/05/06 03:19:07;;;;;;;38.78;13.13;;;;;;;9.59;100.00;102499.81;5064627;28;20472;-72
2022/05/06 03:21:32;;;;;;;37.42;13.55;;;;;;;9.59;100.00;102510.38;5064201;28;20039;-72
2022/05/06 03:23:59;;;;;;;41.30;13.25;;;;;;;9.58;100.00;102498.06;5040690;28;20043;-71
2022/05/06 03:26:24;;;;;;;34.38;13.85;;;;;;;9.55;100.00;102511.34;5064198;28;20034;-72
2022/05/06 03:28:50;;;;;;;29.08;13.43;;;;;;;9.55;100.00;102511.34;5065041;28;20684;-72
2022/05/06 03:31:18;;;;;;;37.17;13.25;;;;;;;9.55;100.00;102506.06;5046043;28;20067;-71
2022/05/06 03:33:47;;;;;;;33.35;11.98;;;;;;;9.53;100.00;102513.13;5064326;28;20031;-73
2022/05/06 03:36:12;;;;;;;30.92;11.40;;;;;;;9.52;100.00;102506.09;5064839;28;20027;-72
2022/05/06 03:38:38;;;;;;;24.52;10.85;;;;;;;9.52;100.00;102516.66;5064389;28;20124;-72
2022/05/06 03:41:03;;;;;;;26.65;10.20;;;;;;;9.49;100.00;102512.28;5019801;28;20168;-71
2022/05/06 03:43:29;;;;;;;20.48;9.70;;;;;;;9.47;100.00;102510.56;5063740;28;20059;-71
2022/05/06 03:45:55;;;;;;;20.98;9.57;;;;;;;9.43;100.00;102501.81;5064363;28;20049;-72
2022/05/06 03:48:24;;;;;;;17.98;7.90;;;;;;;9.40;100.00;102506.25;5042708;28;20068;-72
2022/05/06 03:53:38;;;;;;;19.27;8.52;;;;;;;9.35;100.00;102511.63;5049452;28;20044;-72
2022/05/06 03:56:05;;;;;;;22.52;8.25;;;;;;;9.33;100.00;102503.69;5062981;28;20033;-72
2022/05/06 03:58:31;;;;;;;20.15;8.02;;;;;;;9.33;100.00;102502.84;5042190;28;20477;-72
2022/05/06 04:00:57;;;;;;;18.63;7.78;;;;;;;9.33;100.00;102511.63;5031306;28;20568;-72
2022/05/06 04:03:22;;;;;;;27.13;9.30;;;;;;;9.33;100.00;102511.63;5031617;28;20042;-72
2022/05/06 04:05:48;;;;;;;21.27;8.05;;;;;;;9.32;100.00;102514.31;5044637;28;20036;-72
2022/05/06 04:08:14;;;;;;;24.15;7.97;;;;;;;9.33;100.00;102510.78;5045561;28;20044;-72
2022/05/06 04:10:39;;;;;;;19.10;7.05;;;;;;;9.35;100.00;102515.16;5045647;28;20094;-72
2022/05/06 04:13:05;;;;;;;17.73;7.13;;;;;;;9.35;100.00;102520.44;5064953;28;20119;-72
2022/05/06 04:15:34;;;;;;;19.15;7.75;;;;;;;9.34;100.00;102526.63;5063945;28;20081;-72
2022/05/06 04:18:01;;;;;;;14.55;6.93;;;;;;;9.34;100.00;102523.09;5031901;28;20040;-72
2022/05/06 04:23:30;;;;;;;15.75;6.68;;;;;;;9.28;100.00;102531.97;5063606;28;20060;-72
2022/05/06 04:26:16;;;;;;;12.55;5.38;;;;;;;9.25;100.00;102534.66;5045787;28;20037;-73
2022/05/06 04:28:43;;;;;;;10.65;4.80;;;;;;;9.22;100.00;102529.41;5047554;28;20882;-73
2022/05/06 04:31:09;;;;;;;9.05;5.15;;;;;;;9.20;100.00;102525.91;5044862;28;20036;-74
2022/05/06 04:33:37;;;;;;;9.90;4.72;;;;;;;9.18;100.00;102538.25;5064059;28;20125;-73
2022/05/06 04:36:04;;;;;;;10.02;4.40;;;;;;;9.15;100.00;102531.25;5063611;28;20058;-73
2022/05/06 04:38:29;;;;;;;11.23;4.22;;;;;;;9.14;100.00;102528.66;5049191;28;20058;-73
2022/05/06 04:40:56;;;;;;;8.90;4.70;;;;;;;9.13;100.00;102540.09;5062907;28;20568;-73
2022/05/06 04:43:22;;;;;;;8.40;4.15;;;;;;;9.08;100.00;102527.81;5062527;28;20364;-73
2022/05/06 04:45:49;;;;;;;10.07;3.90;;;;;;;9.09;100.00;102529.56;5063305;28;20141;-72
2022/05/06 04:48:15;;;;;;;7.68;4.20;;;;;;;9.05;100.00;102533.13;5046943;28;20032;-73
2022/05/06 04:50:42;;;;;;;6.38;3.80;;;;;;;9.05;100.00;102527.84;5046150;28;20021;-73
2022/05/06 04:53:09;;;;;;;6.35;3.30;;;;;;;9.02;100.00;102538.47;5033894;28;20094;-73
2022/05/06 04:55:36;;;;;;;6.55;3.42;;;;;;;8.99;100.00;102538.47;5063041;28;20067;-73
2022/05/06 04:58:04;;;;;;;6.22;3.70;;;;;;;9.00;100.00;102542.00;5041969;28;20032;-72
2022/05/06 05:00:31;;;;;;;7.65;3.72;;;;;;;9.02;100.00;102542.84;5063835;28;20166;-73
2022/05/06 05:02:57;;;;;;;6.60;3.60;;;;;;;9.04;100.00;102546.38;5065188;28;20519;-72
2022/05/06 05:05:24;;;;;;;7.90;3.72;;;;;;;9.08;100.00;102538.38;5063912;28;20502;-72
2022/05/06 05:07:50;;;;;;;6.63;3.80;;;;;;;9.13;100.00;102540.97;5066828;28;20412;-72
2022/05/06 05:10:16;;;;;;;9.27;3.80;;;;;;;9.16;100.00;102540.06;5066246;28;20055;-72
2022/05/06 05:12:42;;;;;;;7.93;4.25;;;;;;;9.16;100.00;102551.50;5050965;28;20384;-72
2022/05/06 05:15:08;;;;;;;8.40;4.15;;;;;;;9.19;100.00;102543.53;5065641;28;20039;-72
2022/05/06 05:17:33;;;;;;;9.40;4.30;;;;;;;9.20;100.00;102547.94;5066566;28;20043;-73
2022/05/06 05:19:59;;;;;;;7.78;3.70;;;;;;;9.21;100.00;102549.66;5064508;28;20420;-72
2022/05/06 05:22:24;;;;;;;6.95;3.97;;;;;;;9.26;100.00;102543.47;5049514;28;20776;-72
2022/05/06 05:24:50;;;;;;;6.38;4.03;;;;;;;9.31;100.00;102541.66;5066907;28;20039;-72
2022/05/06 05:27:15;;;;;;;6.80;4.30;;;;;;;9.35;100.00;102538.94;5048627;28;20040;-74
2022/05/06 05:29:42;;;;;;;9.15;4.25;;;;;;;9.37;100.00;102546.81;5066976;28;20036;-73
2022/05/06 05:32:08;;;;;;;8.77;4.72;;;;;;;9.40;100.00;102551.19;5048240;28;20050;-73
2022/05/06 05:34:34;;;;;;;9.88;5.28;;;;;;;9.45;100.00;102546.72;5046459;28;20036;-73
2022/05/06 05:37:00;;;;;;;9.35;5.20;;;;;;;9.49;100.00;102554.59;5048733;28;20467;-73
2022/05/06 05:39:26;;;;;;;9.60;4.50;;;;;;;9.54;100.00;102561.59;5067905;28;21893;-72
2022/05/06 05:41:51;;;;;;;16.50;5.18;;;;;;;9.56;100.00;102550.13;5048533;28;20040;-73
2022/05/06 05:49:45;;;;;;;12.15;5.55;;;;;;;9.59;100.00;102555.34;5048144;28;20499;-73
2022/05/06 05:52:11;;;;;;;9.38;5.13;;;;;;;9.62;100.00;102555.31;5047228;28;20036;-73
2022/05/06 05:54:37;;;;;;;9.25;5.05;;;;;;;9.64;100.00;102563.22;5047126;28;20040;-73
2022/05/06 05:57:03;;;;;;;9.73;5.28;;;;;;;9.68;100.00;102564.94;5064626;28;20048;-74
2022/05/06 05:59:29;;;;;;;11.98;5.22;;;;;;;9.73;100.00;102567.50;5046335;28;20449;-74
2022/05/06 06:01:54;;;;;;;10.52;5.75;;;;;;;9.75;100.00;102565.72;5064455;28;20028;-74
2022/05/06 06:04:20;;;;;;;10.15;5.95;;;;;;;9.83;100.00;102563.84;5065646;28;20067;-73
2022/05/06 06:06:45;;;;;;;12.57;6.45;;;;;;;9.90;100.00;102560.19;5064508;28;20128;-74
2022/05/06 06:09:11;;;;;;;14.43;7.30;;;;;;;9.95;100.00;102559.25;5047408;28;20040;-72
2022/05/06 06:11:37;;;;;;;13.07;6.85;;;;;;;9.97;100.00;102570.69;5050999;28;20036;-73
2022/05/06 06:14:02;;;;;;;11.32;6.47;;;;;;;9.97;100.00;102558.31;5036392;28;20077;-73
2022/05/06 06:16:28;;;;;;;11.82;6.72;;;;;;;9.96;100.00;102553.94;5044606;28;20041;-72
2022/05/06 06:18:58;;;;;;;11.63;6.40;;;;;;;9.98;100.00;102562.72;5047358;28;20032;-72
2022/05/06 06:21:27;;;;;;;10.60;6.30;;;;;;;10.02;100.00;102568.84;5019647;28;20059;-73
2022/05/06 06:23:53;;;;;;;11.57;6.43;;;;;;;10.03;100.00;102568.81;5047682;28;20032;-72
2022/05/06 06:26:18;;;;;;;11.95;6.63;;;;;;;10.04;100.00;102570.56;5049260;28;20453;-72
2022/05/06 06:28:44;;;;;;;11.88;6.70;;;;;;;10.04;100.00;102567.06;5048005;28;20044;-72
2022/05/06 06:31:09;;;;;;;13.32;6.63;;;;;;;10.03;100.00;102571.47;5033596;28;20028;-72
2022/05/06 06:33:38;;;;;;;11.05;6.55;;;;;;;10.05;100.00;102571.44;5045405;28;20161;-73
2022/05/06 06:36:09;;;;;;;10.82;6.43;;;;;;;10.04;100.00;102575.00;5045846;28;20043;-74
2022/05/06 06:38:35;;;;;;;11.52;6.18;;;;;;;10.06;100.00;102573.19;5033485;28;20051;-72
2022/05/06 06:41:01;;;;;;;12.40;7.20;;;;;;;10.05;100.00;102584.69;5064960;28;20034;-73
2022/05/06 06:43:26;;;;;;;10.68;6.50;;;;;;;10.09;100.00;102574.91;5046760;28;20031;-73
2022/05/06 06:45:52;;;;;;;12.40;6.57;;;;;;;10.11;100.00;102574.00;5045106;28;20036;-73
2022/05/06 06:48:18;;;;;;;11.90;6.88;;;;;;;10.15;100.00;102580.13;5062882;28;20397;-73
2022/05/06 06:50:44;;;;;;;11.45;6.53;;;;;;;10.23;100.00;102578.22;5060636;28;20020;-71
2022/05/06 06:53:10;;;;;;;9.18;5.80;;;;;;;10.30;100.00;102573.69;5045952;28;20506;-74
2022/05/06 06:55:36;;;;;;;10.70;6.43;;;;;;;10.38;100.00;102571.78;5045501;28;20063;-72
2022/05/06 06:58:02;;;;;;;9.90;5.63;;;;;;;10.45;100.00;102581.41;5032430;28;20040;-72
2022/05/06 07:00:27;;;;;;;11.95;6.32;;;;;;;10.53;100.00;102580.41;5063931;28;20499;-72
2022/05/06 07:02:55;;;;;;;11.20;6.00;;;;;;;10.64;100.00;102569.63;5045923;28;20032;-72
2022/05/06 07:05:22;;;;;;;9.68;5.72;;;;;;;10.73;100.00;102572.09;5063895;28;20063;-72
2022/05/06 07:13:18;;;;;;;9.45;5.85;;;;;;;11.02;100.00;102577.75;5063714;28;20056;-73
2022/05/06 07:15:43;;;;;;;9.10;5.45;;;;;;;11.11;100.00;102583.72;5039285;28;20633;-73
2022/05/06 07:18:09;;;;;;;9.43;5.30;;;;;;;11.19;100.00;102588.91;5045387;28;20139;-73
2022/05/06 07:20:35;;;;;;;9.32;5.88;;;;;;;11.24;100.00;102587.00;5044571;28;20063;-73
2022/05/06 07:23:00;;;;;;;10.15;5.78;;;;;;;11.30;100.00;102571.88;5059672;28;20468;-72
2022/05/06 07:25:26;;;;;;;8.30;5.85;;;;;;;11.44;100.00;102574.25;5036499;28;20295;-73
2022/05/06 07:27:51;;;;;;;10.15;5.95;;;;;;;11.65;100.00;102572.88;5047682;28;20036;-72
2022/05/06 07:30:17;;;;;;;7.82;5.20;;;;;;;11.94;100.00;102568.72;5042446;28;20039;-74
2022/05/06 07:32:42;;;;;;;8.10;5.40;;;;;;;12.07;100.00;102569.31;5062523;28;20156;-73
2022/05/06 07:35:09;;;;;;;7.05;5.38;;;;;;;12.26;100.00;102571.53;5063344;28;20032;-72
2022/05/06 07:37:35;;;;;;;7.15;4.88;;;;;;;12.44;100.00;102562.22;5062634;28;20032;-73
2022/05/06 07:40:02;;;;;;;6.45;4.55;;;;;;;12.61;100.00;102570.63;5059300;28;20032;-75
2022/05/06 07:42:30;;;;;;;6.93;4.32;;;;;;;12.76;100.00;102571.97;5056867;28;20833;-73
2022/05/06 07:44:57;;;;;;;6.68;4.43;;;;;;;12.89;100.00;102569.88;5052100;28;20762;-72
2022/05/06 07:47:24;;;;;;;7.60;4.55;;;;;;;12.95;100.00;102562.59;5023733;28;21041;-72
2022/05/06 07:49:49;;;;;;;5.82;4.25;;;;;;;13.06;100.00;102573.81;5045163;28;20245;-72
2022/05/06 07:52:15;;;;;;;6.57;3.85;;;;;;;13.11;100.00;102574.56;5030533;28;20036;-73
2022/05/06 07:54:40;;;;;;;5.75;4.03;;;;;;;13.13;100.00;102567.41;5057883;28;20097;-71
2022/05/06 07:57:06;;;;;;;6.10;4.47;;;;;;;13.20;100.00;102569.91;5062636;28;20056;-70
2022/05/06 07:59:31;;;;;;;5.78;4.07;;;;;;;13.23;100.00;102572.47;5061816;28;20032;-71
2022/05/06 08:04:47;;;;;;;6.82;4.03;;;;;;;13.18;97.81;102570.81;5027646;28;20074;-78
2022/05/06 08:07:13;;;;;;;4.70;3.63;;;;;;;13.20;98.71;102572.56;5046056;28;20055;-75
2022/05/06 08:09:38;;;;;;;4.25;3.38;;;;;;;13.28;98.61;102570.53;5061473;28;20115;-71
2022/05/06 08:12:04;;;;;;;6.20;3.88;;;;;;;13.32;97.95;102564.22;5062370;28;20067;-71
2022/05/06 08:14:30;;;;;;;5.30;3.38;;;;;;;13.38;97.81;102571.13;5062664;28;20720;-71
2022/05/06 08:16:55;;;;;;;4.30;3.35;;;;;;;13.39;97.53;102567.56;5061558;28;20565;-70
2022/05/06 08:19:21;;;;;;;3.65;3.22;;;;;;;13.50;97.55;102570.81;5033783;28;20612;-71
2022/05/06 08:21:47;;;;;;;5.32;3.63;;;;;;;13.58;96.60;102573.25;5066238;28;20655;-70
2022/05/06 08:24:12;;;;;;;4.20;3.15;;;;;;;13.58;94.74;102563.44;5044010;28;20883;-70
2022/05/06 08:26:38;;;;;;;3.90;2.97;;;;;;;13.68;96.01;102557.88;5064002;28;20032;-70
2022/05/06 08:29:03;;;;;;;4.70;3.30;;;;;;;13.83;96.53;102567.13;5066728;28;20069;-71
2022/05/06 08:31:32;;;;;;;3.45;2.90;;;;;;;13.91;94.66;102557.13;5065951;28;22018;-71
2022/05/06 08:33:58;;;;;;;3.13;2.67;;;;;;;13.91;93.98;102554.47;5066803;28;20023;-74
2022/05/06 08:36:23;;;;;;;6.38;3.40;;;;;;;13.97;93.59;102554.28;5067241;28;20043;-74
2022/05/06 08:38:49;;;;;;;3.13;2.42;;;;;;;13.98;91.71;102561.34;5064095;28;20530;-75
2022/05/06 08:41:15;;;;;;;3.33;2.72;;;;;;;14.19;92.81;102558.88;5050843;28;20143;-76
2022/05/06 08:43:41;;;;;;;3.08;2.50;;;;;;;14.44;92.10;102554.50;5066847;28;20165;-76
2022/05/06 08:51:55;;;;;;;3.13;2.83;;;;;;;14.72;90.31;102546.41;5026553;28;20044;-75
2022/05/06 08:54:22;;;;;;;3.25;2.80;;;;;;;14.80;88.49;102544.38;5006192;28;20131;-75
2022/05/06 08:56:48;;;;;;;3.40;2.55;;;;;;;14.82;88.70;102543.44;5024588;28;20118;-75
2022/05/06 08:59:13;;;;;;;3.05;2.50;;;;;;;15.01;89.21;102540.97;5048232;28;20480;-73
2022/05/06 09:01:39;;;;;;;2.95;2.75;;;;;;;15.12;87.89;102543.22;5066013;28;20398;-70
2022/05/06 09:04:05;;;;;;;3.92;3.00;;;;;;;15.17;88.73;102542.13;5065466;28;20506;-69
2022/05/06 09:06:32;;;;;;;3.53;2.80;;;;;;;15.24;88.96;102548.09;5066049;28;20040;-70
2022/05/06 09:08:59;;;;;;;3.70;2.70;;;;;;;15.40;89.56;102551.03;5064642;28;20035;-70
2022/05/06 09:17:19;;;;;;;2.58;2.38;;;;;;;15.71;86.57;102546.28;4996797;28;20668;-70
2022/05/06 09:19:45;;;;;;;4.95;2.80;;;;;;;15.88;85.54;102548.28;5065909;28;20353;-70
2022/05/06 09:22:11;;;;;;;4.18;2.10;;;;;;;16.02;86.56;102537.91;5065021;28;20077;-69
2022/05/06 09:24:37;;;;;;;2.80;2.50;;;;;;;16.22;84.30;102540.69;5062509;28;21674;-70
2022/05/06 09:27:04;;;;;;;2.53;2.33;;;;;;;16.34;83.61;102544.66;5063737;28;20160;-70
2022/05/06 09:29:43;;;;;;;3.22;2.40;;;;;;;16.48;81.40;102541.34;5044880;28;20304;-70
2022/05/06 09:32:12;;;;;;;3.63;2.60;;;;;;;16.64;83.46;102541.56;5033952;28;20040;-70
2022/05/06 09:34:38;;;;;;;4.22;2.53;;;;;;;16.83;84.48;102549.63;5063116;28;20268;-71
2022/05/06 09:37:04;;;;;;;3.38;2.47;;;;;;;16.97;77.03;102543.66;5063586;28;20028;-73
2022/05/06 09:39:30;;;;;;;2.92;2.45;;;;;;;17.15;80.10;102546.47;5060286;28;20101;-72
2022/05/06 09:42:03;;;;;;;3.10;2.75;;;;;;;17.35;78.20;102548.19;5047831;28;20110;-72
2022/05/06 09:44:33;;;;;;;2.60;2.40;;;;;;;17.57;79.30;102539.13;5032674;28;20075;-74
2022/05/06 09:47:12;;;;;;;2.88;2.50;;;;;;;17.89;78.12;102542.03;5047438;28;20094;-73
2022/05/06 09:49:44;;;;;;;3.03;2.45;;;;;;;18.16;79.06;102541.63;5048545;28;20388;-80
2022/05/06 09:52:13;;;;;;;3.03;2.70;;;;;;;18.44;79.33;102537.53;5035893;28;20047;-79
2022/05/06 09:54:43;;;;;;;2.40;2.10;;;;;;;18.61;77.65;102533.09;5046458;28;20032;-80
2022/05/06 09:57:14;;;;;;;3.47;2.75;;;;;;;18.83;75.66;102533.69;5046125;28;20063;-80
2022/05/06 09:59:41;;;;;;;4.18;2.75;;;;;;;18.84;75.10;102532.72;5034835;28;20127;-77
2022/05/06 10:02:08;;;;;;;5.65;3.10;;;;;;;18.86;72.32;102532.66;5047494;28;20032;-81
2022/05/06 10:04:35;;;;;;;4.65;3.10;;;;;;;18.68;71.47;102531.81;5030981;28;20280;-80
2022/05/06 10:07:07;;;;;;;4.35;3.22;;;;;;;18.53;72.81;102530.81;5045888;28;20043;-78
2022/05/06 10:09:40;;;;;;;4.63;3.53;;;;;;;18.54;71.87;102532.53;5037554;28;20087;-77
2022/05/06 10:12:07;;;;;;;4.80;3.70;;;;;;;18.45;70.47;102526.72;5031329;28;20074;-73
2022/05/06 10:14:33;;;;;;;4.80;3.88;;;;;;;18.34;70.14;102521.06;5064488;28;20040;-74
2022/05/06 10:16:59;;;;;;;4.07;3.60;;;;;;;18.23;70.84;102508.22;5048467;28;20024;-72
2022/05/06 10:19:44;;;;;;;5.03;4.05;;;;;;;18.33;68.27;102527.38;5047902;28;20039;-73
2022/05/06 10:22:10;;;;;;;3.85;3.22;;;;;;;18.41;69.08;102510.88;5043766;28;20041;-74
2022/05/06 10:24:43;;;;;;;4.05;3.28;;;;;;;18.51;71.04;102509.44;5043948;28;20136;-74
2022/05/06 10:32:25;;;;;;;4.10;3.15;;;;;;;18.78;69.48;102508.91;5064421;28;20635;-73
2022/05/06 10:33:17;;;;;;;4.35;3.65;;;;;;;19.01;68.54;102509.47;5062859;28;20035;-72
2022/05/06 10:35:47;;;;;;;6.50;3.55;;;;;;;18.88;68.23;102514.66;5062458;28;20187;-74
2022/05/06 10:38:18;;;;;;;4.13;3.53;;;;;;;18.91;68.45;102510.94;5046131;28;20063;-73
2022/05/06 10:41:01;;;;;;;4.13;3.50;;;;;;;18.89;67.23;102521.75;5060496;28;20669;-74
2022/05/06 10:43:42;;;;;;;4.68;3.50;;;;;;;19.00;68.04;102507.72;5046689;28;20097;-74
2022/05/06 10:46:08;;;;;;;5.18;3.60;;;;;;;19.14;69.48;102507.84;5064069;28;20650;-73
2022/05/06 10:48:34;;;;;;;4.10;3.60;;;;;;;19.22;67.35;102515.50;5045973;28;20040;-74
2022/05/06 10:51:25;;;;;;;5.90;3.70;;;;;;;19.22;67.12;102509.25;5063458;28;20660;-73
2022/05/06 10:53:51;;;;;;;4.40;3.65;;;;;;;19.17;68.07;102511.34;5044273;28;20507;-74
2022/05/06 10:56:17;;;;;;;4.75;3.65;;;;;;;19.09;66.56;102512.63;5064982;28;20614;-74
2022/05/06 10:58:43;;;;;;;5.60;3.67;;;;;;;18.97;66.54;102508.75;5047111;28;20144;-74
2022/05/06 11:01:18;;;;;;;4.68;3.38;;;;;;;18.78;66.39;102514.28;5022528;28;20465;-74
2022/05/06 11:03:54;;;;;;;3.78;3.38;;;;;;;18.72;67.30;102503.88;5063852;28;20523;-73
2022/05/06 11:06:21;;;;;;;4.40;3.55;;;;;;;18.87;67.92;102508.41;5063886;28;20361;-75
2022/05/06 11:08:46;;;;;;;4.13;3.47;;;;;;;18.94;66.56;102500.00;5042138;28;20575;-75
2022/05/06 11:11:19;;;;;;;3.33;2.67;;;;;;;18.96;64.71;102506.19;5060430;28;20156;-73
2022/05/06 11:13:47;;;;;;;4.85;3.42;;;;;;;19.02;65.74;102505.88;5048758;28;20040;-73
2022/05/06 11:16:14;;;;;;;4.28;3.15;;;;;;;19.05;66.91;102511.06;5063780;28;20038;-73
2022/05/06 11:18:49;;;;;;;4.38;3.20;;;;;;;19.13;66.54;102503.44;5064862;28;20036;-73
2022/05/06 11:21:24;;;;;;;4.18;3.40;;;;;;;19.14;64.56;102505.16;5038699;28;20039;-73
2022/05/06 11:23:50;;;;;;;4.97;3.90;;;;;;;19.06;65.16;102499.38;5039509;28;20135;-74
2022/05/06 11:26:26;;;;;;;4.22;3.50;;;;;;;19.00;63.97;102494.31;5061144;28;20792;-72
2022/05/06 11:29:04;;;;;;;4.72;3.92;;;;;;;18.91;63.95;102497.50;5062977;28;20054;-73
2022/05/06 11:31:30;;;;;;;5.00;3.55;;;;;;;18.87;65.89;102486.94;5062524;28;20040;-73
2022/05/06 11:34:04;;;;;;;4.22;3.35;;;;;;;19.03;65.76;102490.63;5061887;28;20485;-73
2022/05/06 11:36:30;;;;;;;4.38;3.25;;;;;;;19.09;65.68;102485.81;5060482;28;20078;-72
2022/05/06 11:38:56;;;;;;;4.45;3.40;;;;;;;19.14;64.19;102488.22;5062361;28;20119;-72
2022/05/06 11:41:24;;;;;;;4.70;3.65;;;;;;;19.27;65.02;102485.69;5033464;28;20020;-72
2022/05/06 11:43:50;;;;;;;4.40;3.55;;;;;;;19.23;65.17;102476.94;5062490;28;20137;-72
2022/05/06 11:49:07;;;;;;;4.78;3.80;;;;;;;19.26;65.62;102470.53;5062865;28;20488;-71
2022/05/06 11:51:41;;;;;;;5.40;4.43;;;;;;;19.30;63.85;102472.13;5046627;28;20511;-72
2022/05/06 11:54:08;;;;;;;4.90;3.80;;;;;;;19.34;65.44;102470.13;5038442;28;20051;-72
2022/05/06 11:56:33;;;;;;;6.50;4.85;;;;;;;19.35;64.94;102469.16;5045253;28;20036;-71
2022/05/06 11:59:00;;;;;;;5.55;4.65;;;;;;;19.31;65.12;102463.09;5061473;28;20306;-71
2022/05/06 12:01:30;;;;;;;8.05;4.57;;;;;;;19.40;65.60;102461.72;5063399;28;20445;-71